Time;durP1;ratioP1;P1;durP2;ratioP2;P2;SDS_P1;SDS_P2;PMS_P1;PMS_P2;Temp;Humidity;BMP_temperature;BMP_pressure;BME280_temperature;BME280_humidity;BME280_pressure;Samples;Min_cycle;Max_cycle;Signal;HPM_P1;HPM_P2
2022/01/26 00:06:32;;;;;;;79.97;38.72;;;;;;;2.10;82.04;103456.09;5043895;28;20037;-78
2022/01/26 00:08:58;;;;;;;78.30;39.25;;;;;;;2.08;82.36;103455.25;5073105;28;20172;-78
2022/01/26 00:11:24;;;;;;;76.47;38.33;;;;;;;2.04;82.51;103446.53;5072618;28;20024;-78
2022/01/26 00:13:50;;;;;;;78.20;39.30;;;;;;;2.04;82.46;103437.78;5073149;28;20029;-78
2022/01/26 00:18:47;;;;;;;;;;;;;;;2.05;81.94;103434.28;5076865;28;20041;-78
2022/01/26 00:21:24;;;;;;;79.50;38.95;;;;;;;2.04;82.02;103429.91;5076719;28;19916;-79
2022/01/26 00:29:14;;;;;;;85.82;41.13;;;;;;;1.99;83.23;103429.13;5076392;28;20110;-78
2022/01/26 00:33:06;;;;;;;95.15;42.97;;;;;;;1.98;83.48;103428.22;5076822;28;20037;-77
2022/01/26 00:40:36;;;;;;;95.93;44.85;;;;;;;2.00;83.12;103436.97;5076546;28;20078;-78
2022/01/26 00:43:13;;;;;;;94.30;41.83;;;;;;;1.97;83.37;103423.88;5077188;28;20028;-78
2022/01/26 00:45:40;;;;;;;97.95;44.63;;;;;;;1.97;83.41;103423.00;5076998;28;20373;-78
2022/01/26 00:48:08;;;;;;;104.75;46.35;;;;;;;1.94;83.54;103409.03;5076401;28;20036;-78
2022/01/26 00:50:34;;;;;;;102.68;43.33;;;;;;;1.93;83.81;103411.69;5075589;28;20040;-78
2022/01/26 00:53:01;;;;;;;91.80;43.53;;;;;;;1.92;83.64;103409.94;5076588;28;20139;-78
2022/01/26 00:55:27;;;;;;;102.10;46.08;;;;;;;1.91;84.04;103414.31;5076206;28;20032;-78
2022/01/26 00:57:52;;;;;;;103.10;46.15;;;;;;;1.88;84.08;103405.59;5076032;28;20086;-77
2022/01/26 01:00:23;;;;;;;100.78;46.15;;;;;;;1.88;83.67;103405.59;5075893;28;20113;-77
2022/01/26 01:02:50;;;;;;;99.65;44.50;;;;;;;1.92;83.29;103396.81;5075619;28;20028;-78
2022/01/26 01:05:22;;;;;;;100.93;45.75;;;;;;;1.93;83.07;103404.66;5075920;28;20078;-78
2022/01/26 01:07:51;;;;;;;98.20;45.03;;;;;;;1.90;83.67;103394.19;5075199;28;20025;-78
2022/01/26 01:10:20;;;;;;;103.35;45.20;;;;;;;1.87;83.84;103399.50;5076008;28;20021;-78
2022/01/26 01:12:48;;;;;;;99.55;45.42;;;;;;;1.86;83.59;103396.88;5074532;28;20032;-78
2022/01/26 01:15:14;;;;;;;104.88;46.80;;;;;;;1.85;83.59;103390.78;5075890;28;20024;-77
2022/01/26 01:17:45;;;;;;;100.38;45.78;;;;;;;1.84;83.57;103385.53;5076319;28;20483;-77
2022/01/26 01:28:27;;;;;;;94.70;42.17;;;;;;;1.82;83.09;103377.69;5075619;28;20067;-78
2022/01/26 01:30:58;;;;;;;96.13;44.03;;;;;;;1.82;83.33;103372.44;5075077;28;20036;-78
2022/01/26 01:33:31;;;;;;;89.47;42.60;;;;;;;1.83;83.44;103375.94;5076082;28;20028;-79
2022/01/26 01:35:58;;;;;;;95.47;43.72;;;;;;;1.82;83.67;103376.81;5075911;28;20028;-78
2022/01/26 01:38:26;;;;;;;101.10;45.00;;;;;;;1.81;83.80;103373.31;5075519;28;20032;-78
2022/01/26 01:40:52;;;;;;;96.70;44.05;;;;;;;1.79;84.44;103361.94;5077711;28;20024;-78
2022/01/26 01:43:19;;;;;;;98.55;42.38;;;;;;;1.77;84.14;103377.72;5088860;28;20041;-77
2022/01/26 01:45:49;;;;;;;103.50;45.33;;;;;;;1.76;84.50;103365.50;5074853;28;20040;-78
2022/01/26 01:48:21;;;;;;;96.63;44.70;;;;;;;1.77;84.41;103350.63;5076395;28;20036;-77
2022/01/26 01:50:47;;;;;;;;;;;;;;;1.77;84.06;103355.88;5075692;28;20044;-77
2022/01/26 01:53:16;;;;;;;90.25;42.67;;;;;;;1.79;84.16;103353.22;5075208;28;19915;-78
2022/01/26 01:55:49;;;;;;;93.82;43.28;;;;;;;1.77;84.27;103351.47;5074901;28;20070;-78
2022/01/26 01:58:17;;;;;;;99.60;45.22;;;;;;;1.77;84.32;103340.97;5075121;28;20036;-78
2022/01/26 02:00:42;;;;;;;98.40;43.50;;;;;;;1.81;83.86;103343.56;5074551;28;20048;-78
2022/01/26 02:03:08;;;;;;;95.10;44.08;;;;;;;1.83;83.39;103347.03;5074812;28;20098;-79
2022/01/26 02:05:33;;;;;;;97.72;43.72;;;;;;;1.81;83.63;103336.56;5075091;28;20203;-77
2022/01/26 02:07:59;;;;;;;98.22;43.78;;;;;;;1.80;84.19;103354.97;5074691;28;20033;-78
2022/01/26 02:10:26;;;;;;;96.05;44.33;;;;;;;1.79;84.21;103348.81;5074741;28;20106;-78
2022/01/26 02:12:56;;;;;;;91.03;43.35;;;;;;;1.83;84.28;103352.28;5074602;28;20037;-79
2022/01/26 02:15:31;;;;;;;97.60;44.33;;;;;;;1.86;83.94;103347.00;5074402;28;20067;-78
2022/01/26 02:51:13;;;;;;;104.30;44.67;;;;;;;1.87;85.73;103325.13;5059232;28;20054;-78
2022/01/26 02:56:30;;;;;;;109.90;46.17;;;;;;;1.88;85.77;103316.31;5073771;28;20079;-78
2022/01/26 03:06:43;;;;;;;112.38;46.40;;;;;;;1.82;86.60;103295.41;5073748;28;20048;-79
2022/01/26 03:09:13;;;;;;;113.53;47.53;;;;;;;1.83;86.79;103294.53;5073906;28;20037;-79
2022/01/26 03:11:41;;;;;;;110.60;45.53;;;;;;;1.84;86.85;103272.66;5073450;28;20041;-79
2022/01/26 03:14:22;;;;;;;111.40;45.33;;;;;;;1.84;87.19;103280.53;5074144;28;20037;-80
2022/01/26 03:16:54;;;;;;;118.32;46.65;;;;;;;1.87;86.76;103283.97;5073577;28;20033;-79
2022/01/26 03:19:33;;;;;;;116.97;46.97;;;;;;;1.89;86.93;103289.19;5073959;28;20063;-80
2022/01/26 03:28:14;;;;;;;117.03;45.60;;;;;;;1.90;86.84;103296.19;5073081;28;20105;-79
2022/01/26 03:36:00;;;;;;;118.50;45.67;;;;;;;1.87;88.23;103267.34;5026139;28;20049;-79
2022/01/26 03:38:38;;;;;;;116.88;46.90;;;;;;;1.85;88.95;103264.75;5073412;28;20460;-80
2022/01/26 03:41:23;;;;;;;115.97;48.08;;;;;;;1.84;89.06;103260.38;5072068;28;20040;-79
2022/01/26 03:43:48;;;;;;;116.15;46.40;;;;;;;1.86;89.15;103260.34;5073523;28;20029;-79
2022/01/26 03:46:14;;;;;;;110.57;44.88;;;;;;;1.90;89.06;103273.41;5071740;28;20062;-80
2022/01/26 03:48:39;;;;;;;114.65;46.88;;;;;;;1.91;89.17;103300.53;5073220;28;20051;-79
2022/01/26 03:51:04;;;;;;;110.50;45.85;;;;;;;1.93;89.09;103304.03;5073911;28;20037;-79
2022/01/26 03:53:30;;;;;;;120.85;46.03;;;;;;;1.92;89.59;103318.03;5079438;28;20033;-78
2022/01/26 03:55:55;;;;;;;107.88;44.03;;;;;;;1.92;89.47;103313.63;5079816;28;20021;-79
2022/01/26 03:58:21;;;;;;;114.70;45.08;;;;;;;1.93;89.68;103311.91;5079753;28;20483;-79
2022/01/26 04:00:47;;;;;;;113.60;44.60;;;;;;;1.92;90.27;103315.41;5079377;28;20044;-79
2022/01/26 04:03:12;;;;;;;123.95;46.38;;;;;;;1.95;89.94;103317.97;5080099;28;20043;-80
2022/01/26 04:05:38;;;;;;;114.18;45.63;;;;;;;1.96;90.11;103314.47;5079822;28;20107;-80
2022/01/26 04:08:10;;;;;;;117.72;44.75;;;;;;;1.98;90.12;103330.22;5079754;28;20392;-80
2022/01/26 04:13:07;;;;;;;115.88;45.95;;;;;;;1.98;90.49;103335.47;5079728;28;20173;-79
2022/01/26 04:15:35;;;;;;;119.95;45.97;;;;;;;1.99;90.48;103345.09;5078446;28;20111;-79
2022/01/26 04:18:03;;;;;;;111.25;44.33;;;;;;;1.99;90.90;103355.59;5079891;28;20037;-80
2022/01/26 04:20:34;;;;;;;118.22;44.95;;;;;;;1.97;90.69;103345.09;5079507;28;20535;-79
2022/01/26 04:23:18;;;;;;;119.07;45.40;;;;;;;1.98;91.46;103336.31;5079913;28;20362;-79
2022/01/26 04:25:45;;;;;;;122.35;45.67;;;;;;;1.98;91.56;103315.31;5079880;28;20028;-79
2022/01/26 04:28:17;;;;;;;111.38;44.17;;;;;;;1.98;92.08;103296.06;5079282;28;20029;-79
2022/01/26 04:30:43;;;;;;;;;;;;;;;2.00;91.80;103292.53;5079966;28;20108;-79
2022/01/26 04:33:09;;;;;;;107.25;42.85;;;;;;;2.05;91.56;103287.22;5079435;28;19916;-80
2022/01/26 04:35:34;;;;;;;98.53;38.25;;;;;;;2.08;91.84;103279.28;5079270;28;20457;-78
2022/01/26 04:40:39;;;;;;;101.10;39.55;;;;;;;2.10;92.07;103267.84;5079717;28;20124;-79
2022/01/26 04:43:12;;;;;;;67.28;28.23;;;;;;;2.20;92.00;103296.59;5078299;28;20038;-81
2022/01/26 04:45:37;;;;;;;63.05;27.25;;;;;;;2.28;91.65;103299.97;5079668;28;20500;-79
2022/01/26 04:48:03;;;;;;;57.58;27.27;;;;;;;2.35;91.38;103295.50;5079436;28;20028;-80
2022/01/26 04:50:29;;;;;;;67.15;28.08;;;;;;;2.36;90.97;103286.69;5079350;28;20472;-79
2022/01/26 04:52:54;;;;;;;61.10;27.60;;;;;;;2.35;90.45;103291.09;5079064;28;20510;-79
2022/01/26 04:55:19;;;;;;;71.60;29.08;;;;;;;2.33;90.23;103299.88;5077866;28;20044;-79
2022/01/26 04:57:45;;;;;;;66.13;28.33;;;;;;;2.31;90.02;103297.28;5079060;28;20111;-79
2022/01/26 05:00:10;;;;;;;55.15;26.98;;;;;;;2.31;89.73;103297.28;5079097;28;20456;-80
2022/01/26 05:02:36;;;;;;;61.58;29.58;;;;;;;2.30;89.77;103298.19;5078049;28;20035;-78
2022/01/26 05:05:02;;;;;;;61.63;29.30;;;;;;;2.27;88.92;103293.00;5075214;28;20491;-80
2022/01/26 05:07:27;;;;;;;64.63;27.88;;;;;;;2.25;89.07;103290.34;5076147;28;20064;-80
2022/01/26 05:09:52;;;;;;;62.85;27.88;;;;;;;2.25;89.11;103285.09;5075425;28;20521;-79
2022/01/26 05:12:18;;;;;;;52.92;27.48;;;;;;;2.24;88.55;103277.25;5075741;28;20037;-80
2022/01/26 05:14:46;;;;;;;64.72;29.63;;;;;;;2.19;88.52;103274.69;5075805;28;20033;-80
2022/01/26 05:17:13;;;;;;;61.92;29.45;;;;;;;2.17;88.33;103273.88;5075828;28;20186;-80
2022/01/26 05:19:39;;;;;;;53.65;26.73;;;;;;;2.16;87.57;103269.50;5076115;28;20033;-78
2022/01/26 05:22:05;;;;;;;57.28;27.15;;;;;;;2.12;87.22;103280.97;5076100;28;20388;-80
2022/01/26 05:24:30;;;;;;;57.83;27.77;;;;;;;2.14;87.39;103268.66;5076006;28;20040;-80
2022/01/26 05:26:56;;;;;;;63.28;28.65;;;;;;;2.10;87.55;103270.47;5065950;28;20041;-80
2022/01/26 05:29:21;;;;;;;63.03;28.92;;;;;;;2.07;87.17;103274.91;5089037;28;20143;-80
2022/01/26 05:31:46;;;;;;;66.47;30.58;;;;;;;2.04;87.50;103274.97;5081778;28;20056;-80
2022/01/26 05:34:11;;;;;;;65.15;30.30;;;;;;;2.01;87.80;103275.88;5075862;28;20040;-80
2022/01/26 05:36:37;;;;;;;69.55;30.48;;;;;;;2.00;87.64;103278.50;5075739;28;20115;-80
2022/01/26 05:39:04;;;;;;;66.25;30.60;;;;;;;2.00;87.36;103287.28;5075712;28;20036;-80
2022/01/26 05:41:29;;;;;;;65.93;31.10;;;;;;;1.98;87.52;103288.19;5075218;28;20031;-80
2022/01/26 05:43:54;;;;;;;70.80;31.40;;;;;;;1.95;87.52;103294.34;5074916;28;20117;-80
2022/01/26 05:47:07;;;;;;;70.20;31.73;;;;;;;1.89;87.67;103299.69;5074968;28;20425;-81
2022/01/26 05:49:06;;;;;;;72.07;33.13;;;;;;;1.88;87.67;103301.47;5064074;28;20036;-81
2022/01/26 05:51:33;;;;;;;71.72;32.53;;;;;;;1.86;87.72;103295.34;5075174;28;20028;-80
2022/01/26 05:53:58;;;;;;;72.90;31.38;;;;;;;1.84;87.65;103304.16;5074779;28;20439;-81
2022/01/26 05:56:24;;;;;;;74.35;32.65;;;;;;;1.85;87.81;103313.75;5075313;28;20028;-80
2022/01/26 05:58:49;;;;;;;77.85;33.08;;;;;;;1.80;88.15;103313.81;5073481;28;20116;-79
2022/01/26 06:01:16;;;;;;;71.00;32.78;;;;;;;1.77;88.19;103327.84;5074693;28;20057;-81
2022/01/26 06:03:41;;;;;;;74.53;31.83;;;;;;;1.80;87.59;103321.69;5075463;28;20384;-81
2022/01/26 06:06:06;;;;;;;74.43;32.25;;;;;;;1.80;87.68;103312.97;5074326;28;20112;-82
2022/01/26 06:08:32;;;;;;;65.78;31.98;;;;;;;1.79;87.79;103306.81;5074796;28;20028;-81
2022/01/26 06:10:59;;;;;;;74.18;32.65;;;;;;;1.76;88.05;103292.00;5074658;28;20396;-82
2022/01/26 06:13:25;;;;;;;73.70;32.03;;;;;;;1.78;88.14;103289.34;5074817;28;20083;-80
2022/01/26 06:15:51;;;;;;;68.88;30.20;;;;;;;1.73;87.33;103278.94;5074440;28;20481;-79
2022/01/26 06:18:17;;;;;;;71.18;30.75;;;;;;;1.72;87.25;103273.69;5074525;28;20035;-77
2022/01/26 06:20:42;;;;;;;67.90;30.58;;;;;;;1.72;86.86;103274.56;5074191;28;20457;-77
2022/01/26 06:23:08;;;;;;;66.10;29.80;;;;;;;1.72;87.03;103271.94;5073840;28;20482;-76
2022/01/26 06:25:33;;;;;;;67.95;30.52;;;;;;;1.71;87.10;103278.06;5074796;28;20504;-76
2022/01/26 06:28:00;;;;;;;64.78;29.30;;;;;;;1.72;87.10;103277.19;5073874;28;20044;-77
2022/01/26 06:30:26;;;;;;;63.33;30.00;;;;;;;1.75;87.14;103273.66;5074278;28;20457;-76
2022/01/26 06:32:53;;;;;;;63.28;31.48;;;;;;;1.76;87.12;103281.50;5073076;28;20035;-76
2022/01/26 06:35:19;;;;;;;62.55;30.15;;;;;;;1.75;87.87;103278.91;5074235;28;20033;-78
2022/01/26 06:37:45;;;;;;;69.82;29.98;;;;;;;1.75;87.87;103271.88;5073835;28;20389;-76
2022/01/26 06:40:11;;;;;;;70.70;31.50;;;;;;;1.77;87.55;103270.09;5074044;28;20032;-78
2022/01/26 06:42:50;;;;;;;69.32;30.67;;;;;;;1.77;87.47;103275.34;5073869;28;20039;-79
2022/01/26 06:45:22;;;;;;;70.68;30.73;;;;;;;1.74;87.71;103291.13;5074009;28;20574;-79
2022/01/26 06:50:12;;;;;;;61.88;28.42;;;;;;;1.75;87.43;103302.53;5074057;28;20005;-81
2022/01/26 06:52:38;;;;;;;61.53;27.65;;;;;;;1.78;87.78;103302.47;5072574;28;20115;-81
2022/01/26 06:55:04;;;;;;;61.20;27.10;;;;;;;1.77;87.72;103293.72;5073593;28;20101;-77
2022/01/26 06:57:29;;;;;;;62.85;28.60;;;;;;;1.79;87.83;103280.56;5073853;28;20032;-79
2022/01/26 06:59:55;;;;;;;67.30;29.45;;;;;;;1.82;87.98;103277.03;5072433;28;20073;-78
2022/01/26 07:02:20;;;;;;;66.45;28.70;;;;;;;1.79;87.91;103272.69;5073860;28;20044;-78
2022/01/26 07:04:45;;;;;;;68.15;29.65;;;;;;;1.79;88.42;103291.06;5073460;28;20120;-78
2022/01/26 07:07:11;;;;;;;62.95;29.10;;;;;;;1.81;88.35;103291.03;5073261;28;20028;-82
2022/01/26 07:09:37;;;;;;;63.60;29.92;;;;;;;1.81;88.49;103296.28;5073195;28;20032;-83
2022/01/26 07:12:02;;;;;;;69.82;30.13;;;;;;;1.82;88.34;103300.66;5074126;28;20037;-85
2022/01/26 07:20:35;;;;;;;56.28;26.23;;;;;;;1.90;87.59;103319.81;5073217;28;20047;-78
2022/01/26 07:22:41;;;;;;;56.97;26.60;;;;;;;1.90;87.74;103314.56;5072691;28;20064;-78
2022/01/26 07:25:07;;;;;;;57.45;26.08;;;;;;;1.92;87.78;103325.91;5072787;28;20043;-78
2022/01/26 07:27:32;;;;;;;61.67;27.98;;;;;;;1.95;87.61;103317.97;5071981;28;20043;-76
2022/01/26 07:29:59;;;;;;;56.80;26.30;;;;;;;2.00;87.51;103323.16;5073378;28;20037;-78
2022/01/26 07:32:26;;;;;;;53.08;26.02;;;;;;;2.06;87.11;103323.06;5072940;28;20489;-76
2022/01/26 07:34:51;;;;;;;60.03;27.98;;;;;;;2.08;87.12;103309.03;5073449;28;20056;-77
2022/01/26 07:37:18;;;;;;;53.55;25.90;;;;;;;2.07;87.06;103315.16;5072864;28;20110;-76
2022/01/26 07:39:48;;;;;;;51.35;25.38;;;;;;;2.09;87.15;103320.38;5073130;28;20064;-78
2022/01/26 07:42:14;;;;;;;66.88;26.38;;;;;;;2.11;87.54;103316.84;5073335;28;20075;-77
2022/01/26 07:44:40;;;;;;;57.80;27.27;;;;;;;2.08;87.67;103319.53;5072354;28;20046;-75
2022/01/26 07:47:06;;;;;;;58.22;26.95;;;;;;;2.13;87.43;103327.34;5072876;28;20037;-77
2022/01/26 07:49:31;;;;;;;49.85;24.35;;;;;;;2.16;87.15;103322.03;5071119;28;20051;-79
2022/01/26 07:51:57;;;;;;;59.78;26.50;;;;;;;2.18;87.41;103322.91;5072489;28;20037;-75
2022/01/26 07:54:23;;;;;;;60.35;23.88;;;;;;;2.20;87.70;103320.25;5072570;28;20461;-77
2022/01/26 07:56:49;;;;;;;56.70;24.15;;;;;;;2.21;87.64;103314.09;5072640;28;20037;-79
2022/01/26 07:59:14;;;;;;;55.65;24.00;;;;;;;2.24;87.61;103324.53;5072319;28;20456;-78
2022/01/26 08:01:40;;;;;;;53.65;22.98;;;;;;;2.25;87.89;103332.41;5072170;28;20106;-81
2022/01/26 08:04:05;;;;;;;48.33;21.20;;;;;;;2.27;88.11;103330.63;5072561;28;20437;-79
2022/01/26 08:06:31;;;;;;;50.95;22.55;;;;;;;2.24;88.28;103332.41;5072572;28;20036;-81
2022/01/26 08:08:56;;;;;;;47.80;21.90;;;;;;;2.24;88.22;103337.69;5072855;28;20380;-80
2022/01/26 08:11:24;;;;;;;56.38;22.40;;;;;;;2.22;88.43;103321.09;5072718;28;20032;-78
2022/01/26 08:13:50;;;;;;;55.95;20.55;;;;;;;2.19;88.34;103311.47;5071231;28;20483;-80
2022/01/26 08:16:15;;;;;;;41.78;20.63;;;;;;;2.16;88.53;103314.16;5072574;28;20056;-81
2022/01/26 08:18:40;;;;;;;48.40;21.25;;;;;;;2.17;88.89;103317.69;5072395;28;20028;-82
2022/01/26 08:21:06;;;;;;;47.67;21.13;;;;;;;2.17;89.07;103300.13;5072435;28;20158;-80
2022/01/26 08:23:35;;;;;;;54.00;23.38;;;;;;;2.20;89.31;103309.75;5072328;28;20366;-80
2022/01/26 08:26:00;;;;;;;59.08;21.55;;;;;;;2.21;89.28;103311.47;5072273;28;20032;-76
2022/01/26 08:28:32;;;;;;;42.55;22.48;;;;;;;2.22;89.36;103310.56;5072397;28;20406;-83
2022/01/26 08:30:57;;;;;;;;;;;;;;;2.23;89.66;103307.91;5073389;28;20033;-74
2022/01/26 08:33:23;;;;;;;52.00;21.45;;;;;;;2.25;89.71;103313.16;5072176;28;20321;-78
2022/01/26 08:35:48;;;;;;;51.75;22.55;;;;;;;2.27;89.79;103320.13;5072358;28;20080;-80
2022/01/26 08:38:13;;;;;;;51.63;23.02;;;;;;;2.28;89.83;103320.97;5072391;28;20066;-78
2022/01/26 08:40:39;;;;;;;58.55;23.20;;;;;;;2.29;90.16;103309.59;5075829;28;20041;-79
2022/01/26 08:43:04;;;;;;;61.42;24.08;;;;;;;2.31;89.96;103301.69;5076167;28;20087;-80
2022/01/26 08:45:30;;;;;;;65.25;23.60;;;;;;;2.35;89.70;103306.00;5076080;28;20428;-81
2022/01/26 08:47:56;;;;;;;64.50;24.30;;;;;;;2.35;89.84;103295.50;5076289;28;20032;-79
2022/01/26 08:50:21;;;;;;;60.03;24.70;;;;;;;2.37;89.82;103302.44;5075954;28;20029;-81
2022/01/26 08:52:47;;;;;;;56.95;23.80;;;;;;;2.41;89.70;103306.75;5075476;28;20043;-80
2022/01/26 08:55:13;;;;;;;55.00;23.52;;;;;;;2.47;89.42;103311.91;5076015;28;20029;-76
2022/01/26 08:57:38;;;;;;;44.83;22.08;;;;;;;2.49;89.48;103306.63;5076498;28;20036;-79
2022/01/26 09:00:07;;;;;;;44.72;21.30;;;;;;;2.59;88.71;103305.56;5075473;28;20055;-78
2022/01/26 09:02:33;;;;;;;38.83;21.23;;;;;;;2.67;87.57;103305.44;5076234;28;20028;-79
2022/01/26 09:04:58;;;;;;;35.35;19.98;;;;;;;2.72;86.75;103300.97;5075960;28;20043;-77
2022/01/26 09:07:24;;;;;;;40.65;20.20;;;;;;;2.78;86.28;103297.38;5078775;28;20437;-75
2022/01/26 09:09:49;;;;;;;42.00;20.42;;;;;;;2.82;85.89;103296.38;5077512;28;20111;-76
2022/01/26 09:12:17;;;;;;;42.42;20.05;;;;;;;2.85;85.69;103295.47;5075871;28;20491;-75
2022/01/26 09:14:43;;;;;;;41.05;19.15;;;;;;;2.90;85.22;103298.91;5075980;28;20036;-81
2022/01/26 09:17:11;;;;;;;37.50;19.83;;;;;;;2.97;84.79;103311.03;5076089;28;20032;-79
2022/01/26 09:19:38;;;;;;;32.50;18.40;;;;;;;2.99;84.43;103310.09;5075299;28;20028;-81
2022/01/26 09:22:08;;;;;;;35.88;19.05;;;;;;;3.05;84.46;103305.63;5075559;28;20033;-83
2022/01/26 09:24:36;;;;;;;41.10;20.38;;;;;;;3.06;84.56;103295.09;5076140;28;20381;-75
2022/01/26 09:27:03;;;;;;;33.92;19.42;;;;;;;3.08;84.93;103300.31;5074893;28;20031;-73
2022/01/26 09:29:29;;;;;;;38.35;20.73;;;;;;;3.12;84.82;103297.59;5075412;28;20068;-75
2022/01/26 09:31:55;;;;;;;41.08;19.13;;;;;;;3.16;84.59;103294.00;5074518;28;20497;-77
2022/01/26 09:34:23;;;;;;;39.17;19.67;;;;;;;3.20;84.56;103301.84;5073324;28;20056;-79
2022/01/26 09:36:49;;;;;;;36.45;19.95;;;;;;;3.24;84.21;103303.47;5075741;28;20029;-79
2022/01/26 09:39:17;;;;;;;39.33;18.83;;;;;;;3.33;83.52;103300.69;5076708;28;20032;-78
2022/01/26 09:41:50;;;;;;;35.47;19.77;;;;;;;3.37;83.34;103306.75;5075340;28;20032;-77
2022/01/26 09:44:17;;;;;;;35.85;18.33;;;;;;;3.40;82.68;103307.53;5073323;28;20437;-78
2022/01/26 09:46:44;;;;;;;33.80;19.25;;;;;;;3.42;82.72;103318.91;5074924;28;20028;-79
2022/01/26 09:49:09;;;;;;;31.95;18.35;;;;;;;3.51;82.64;103309.97;5073773;28;20029;-75
2022/01/26 09:51:43;;;;;;;36.22;18.58;;;;;;;3.55;82.33;103308.13;5074402;28;20040;-75
2022/01/26 09:54:14;;;;;;;31.17;18.30;;;;;;;3.58;82.40;103294.88;5074805;28;20465;-82
2022/01/26 09:56:40;;;;;;;33.33;17.48;;;;;;;3.65;82.14;103293.84;5075101;28;20048;-76
2022/01/26 09:59:06;;;;;;;32.35;17.67;;;;;;;3.68;82.20;103288.53;5073352;28;20044;-76
2022/01/26 10:01:50;;;;;;;36.15;18.70;;;;;;;3.72;82.51;103292.81;5075010;28;20133;-77
2022/01/26 10:04:36;;;;;;;31.73;17.73;;;;;;;3.79;82.24;103301.44;5075244;28;20040;-80
2022/01/26 10:07:24;;;;;;;35.70;16.48;;;;;;;3.88;81.43;103298.59;5074679;28;20450;-79
2022/01/26 10:15:28;;;;;;;30.83;17.70;;;;;;;4.04;81.34;103312.28;5074035;28;20403;-76
2022/01/26 10:18:03;;;;;;;30.50;17.27;;;;;;;4.06;81.08;103311.34;5074746;28;20352;-80
2022/01/26 10:20:39;;;;;;;29.08;15.80;;;;;;;4.09;80.88;103323.59;5074143;28;20382;-79
2022/01/26 10:23:06;;;;;;;32.97;17.58;;;;;;;4.13;81.05;103316.47;5074226;28;20052;-77
2022/01/26 10:25:32;;;;;;;30.67;17.20;;;;;;;4.14;81.16;103323.47;5073892;28;20488;-80
2022/01/26 10:27:57;;;;;;;27.45;16.25;;;;;;;4.16;80.86;103309.34;5073629;28;20071;-77
2022/01/26 10:30:22;;;;;;;29.80;15.43;;;;;;;4.22;80.33;103310.97;5073630;28;20093;-77
2022/01/26 10:32:48;;;;;;;30.13;15.57;;;;;;;4.24;80.34;103312.69;5074229;28;20029;-79
2022/01/26 10:35:15;;;;;;;25.98;15.23;;;;;;;4.26;80.23;103315.28;5072508;28;20029;-78
2022/01/26 10:37:52;;;;;;;25.65;14.98;;;;;;;4.31;80.14;103310.75;5074382;28;20032;-80
2022/01/26 10:40:22;;;;;;;30.23;16.00;;;;;;;4.37;80.31;103313.25;5073785;28;20036;-80
2022/01/26 10:43:00;;;;;;;30.52;15.70;;;;;;;4.40;79.82;103313.19;5074530;28;20025;-76
2022/01/26 10:45:35;;;;;;;29.45;15.27;;;;;;;4.47;79.68;103310.38;5056390;28;20037;-77
2022/01/26 10:49:05;;;;;;;32.92;14.55;;;;;;;4.59;79.57;103313.56;5074021;28;20444;-78
2022/01/26 10:53:55;;;;;;;28.08;15.48;;;;;;;4.73;78.78;103302.66;5074040;28;20040;-78
2022/01/26 10:56:20;;;;;;;25.98;14.20;;;;;;;4.77;78.74;103299.00;5073708;28;20461;-76
2022/01/26 10:58:46;;;;;;;27.25;14.07;;;;;;;4.80;78.05;103308.63;5073253;28;20040;-77
2022/01/26 11:01:11;;;;;;;28.25;15.48;;;;;;;4.78;77.97;103297.25;5072426;28;20052;-77
2022/01/26 11:03:38;;;;;;;24.85;14.20;;;;;;;4.81;77.87;103289.25;5073254;28;20056;-77
2022/01/26 11:06:05;;;;;;;28.90;14.95;;;;;;;4.80;77.91;103295.44;5073034;28;20060;-78
2022/01/26 11:08:35;;;;;;;24.25;15.15;;;;;;;4.85;78.23;103284.75;5072978;28;20035;-77
2022/01/26 11:11:00;;;;;;;31.25;15.45;;;;;;;4.87;78.27;103277.69;5073909;28;20040;-75
2022/01/26 11:13:33;;;;;;;29.73;14.23;;;;;;;4.91;77.89;103285.47;5073143;28;20032;-76
2022/01/26 11:16:14;;;;;;;26.58;14.48;;;;;;;4.98;77.54;103280.00;5072976;28;20099;-76
2022/01/26 11:18:58;;;;;;;25.23;14.20;;;;;;;5.01;77.49;103278.13;5072789;28;20491;-79
2022/01/26 11:21:37;;;;;;;29.27;14.90;;;;;;;5.06;77.71;103286.81;5071945;28;20035;-81
2022/01/26 11:24:20;;;;;;;28.88;14.57;;;;;;;5.07;77.59;103283.25;5073593;28;20029;-77
2022/01/26 11:26:49;;;;;;;27.88;14.65;;;;;;;5.12;77.51;103280.50;5073190;28;20029;-85
2022/01/26 11:29:17;;;;;;;34.72;14.27;;;;;;;5.18;77.45;103279.44;5073178;28;20147;-83
2022/01/26 11:31:42;;;;;;;28.63;15.18;;;;;;;5.24;77.54;103279.25;5072949;28;20023;-78
2022/01/26 11:34:10;;;;;;;32.58;15.40;;;;;;;5.28;77.13;103270.34;5072931;28;20032;-81
2022/01/26 11:36:37;;;;;;;39.42;14.98;;;;;;;5.34;76.85;103275.44;5071702;28;20082;-79
2022/01/26 11:42:32;;;;;;;25.02;13.63;;;;;;;5.42;76.72;103265.53;5063356;28;20451;-81
2022/01/26 11:45:12;;;;;;;26.95;13.55;;;;;;;5.41;76.32;103265.56;5073595;28;20063;-80
2022/01/26 11:47:41;;;;;;;25.55;13.18;;;;;;;5.40;76.25;103269.13;5073490;28;20024;-80
2022/01/26 11:50:18;;;;;;;21.02;12.35;;;;;;;5.38;75.93;103265.66;5073367;28;20020;-76
2022/01/26 11:52:56;;;;;;;22.17;13.15;;;;;;;5.37;76.36;103269.22;5073586;28;20021;-80
2022/01/26 11:55:52;;;;;;;24.33;13.68;;;;;;;5.37;76.62;103270.06;5073190;28;20487;-77
2022/01/26 11:58:41;;;;;;;28.95;12.95;;;;;;;5.42;76.83;103267.28;5072742;28;20040;-78
2022/01/26 12:03:43;;;;;;;24.90;12.77;;;;;;;5.46;76.65;103266.28;5072571;28;20045;-78
2022/01/26 12:06:17;;;;;;;27.45;13.60;;;;;;;5.48;77.21;103270.63;5073460;28;20360;-77
2022/01/26 12:08:43;;;;;;;22.60;13.10;;;;;;;5.45;76.92;103275.13;5072899;28;20088;-81
2022/01/26 12:11:11;;;;;;;21.63;13.00;;;;;;;5.44;77.46;103276.03;5073078;28;20031;-79
2022/01/26 12:13:38;;;;;;;25.33;13.48;;;;;;;5.38;77.81;103285.00;5075499;28;20090;-79
2022/01/26 12:16:15;;;;;;;26.02;13.15;;;;;;;5.26;78.47;103272.19;5076626;28;20032;-79
2022/01/26 12:18:57;;;;;;;23.33;13.02;;;;;;;5.23;78.75;103272.28;5076718;28;20028;-76
2022/01/26 12:38:03;;;;;;;26.98;13.60;;;;;;;5.34;78.34;103246.41;5076509;28;20037;-76
2022/01/26 12:43:39;;;;;;;25.70;12.73;;;;;;;5.27;78.45;103244.88;5076141;28;20069;-82
2022/01/26 12:46:08;;;;;;;25.80;12.85;;;;;;;5.29;78.71;103243.03;5076768;28;20028;-80
2022/01/26 12:48:38;;;;;;;24.67;11.80;;;;;;;5.28;78.67;103241.31;5076468;28;20039;-79
2022/01/26 12:51:06;;;;;;;25.50;13.05;;;;;;;5.24;79.02;103237.91;5076667;28;20024;-81
2022/01/26 12:53:35;;;;;;;25.92;13.45;;;;;;;5.24;79.24;103244.94;5076152;28;20028;-80
2022/01/26 12:56:03;;;;;;;26.65;12.23;;;;;;;5.21;79.28;103232.72;5075517;28;20064;-81
2022/01/26 12:58:31;;;;;;;26.90;14.13;;;;;;;5.24;79.49;103234.38;5075598;28;20032;-77
2022/01/26 13:01:06;;;;;;;25.40;12.77;;;;;;;5.26;79.28;103227.31;5076323;28;20052;-78
2022/01/26 13:03:40;;;;;;;23.00;12.57;;;;;;;5.26;79.93;103228.16;5076799;28;20028;-77
2022/01/26 13:06:06;;;;;;;23.30;12.57;;;;;;;5.29;79.89;103219.28;5081644;28;20031;-80
2022/01/26 13:09:02;;;;;;;27.27;12.75;;;;;;;5.32;79.24;103218.34;5079619;28;20033;-78
2022/01/26 13:11:35;;;;;;;25.30;13.02;;;;;;;5.25;80.07;103209.72;5059511;28;20124;-76
2022/01/26 13:14:02;;;;;;;26.92;13.30;;;;;;;5.24;80.01;103222.06;5076092;28;20094;-79
2022/01/26 13:16:34;;;;;;;29.02;13.02;;;;;;;5.21;80.12;103222.16;5075919;28;20067;-80
2022/01/26 13:19:28;;;;;;;25.90;13.63;;;;;;;5.27;79.69;103215.84;5075099;28;20033;-77
2022/01/26 13:27:45;;;;;;;27.90;12.82;;;;;;;5.23;80.37;103214.19;5075249;28;20113;-79
2022/01/26 13:35:39;;;;;;;21.58;12.23;;;;;;;5.14;80.43;103206.56;5075547;28;20419;-80
2022/01/26 13:38:35;;;;;;;27.45;14.20;;;;;;;5.09;80.66;103204.03;5075520;28;20538;-82
2022/01/26 13:44:06;;;;;;;27.90;12.70;;;;;;;5.03;80.95;103193.66;5075117;28;20403;-79
2022/01/26 13:51:33;;;;;;;31.80;14.10;;;;;;;5.01;81.46;103201.63;5075491;28;20097;-85
2022/01/26 13:59:30;;;;;;;24.52;13.20;;;;;;;5.05;81.42;103189.22;5064233;28;20048;-81